Daydream Believer — V7XJ3 — position and weather

sailwx.info

Track history (hours):
 
Tides and Currents Weather Stations Pressure Air Temp Water Temp Dewpoint Dewpoint Depression Visibility Wind Speed Wind Dir Waves Ship Positions

Daydream Believer

Last reported at 2017-Nov-24 09:30 UTC. Time now 2017-Nov-24 13:17 UTC.
Position S 20°06' E 118°32'.

Length 178 m; draft 6.5 m.

Type: Ship. MMSI: 538004493.

Date/timePositionNaut miles runAvg speedWind from/ knotsBaromVisibWave heightAir tempDewpointWater temp
2017-Nov-24 09:30S 20°06' E 118°32'0 0.0
2017-Nov-24 07:06S 20°06' E 118°32'0 0.0
2017-Nov-24 05:42S 20°06' E 118°32'0 0.0
2017-Nov-24 01:48S 20°06' E 118°32'0 0.0
2017-Nov-24 01:30S 20°06' E 118°32'0 0.1
2017-Nov-24 01:00S 20°06' E 118°32'0 0.0
2017-Nov-24 00:30S 20°06' E 118°32'0 0.0
2017-Nov-23 23:54S 20°06' E 118°32'0 0.1
2017-Nov-23 22:00S 20°06' E 118°31'0 0.0
2017-Nov-23 20:42S 20°06' E 118°31'0 0.1
2017-Nov-23 19:30S 20°06' E 118°32'0 0.0
2017-Nov-23 14:18S 20°06' E 118°32'0 0.0
2017-Nov-23 12:30S 20°06' E 118°32'0 0.0
2017-Nov-23 10:42S 20°06' E 118°32'0 0.0
2017-Nov-23 10:30S 20°06' E 118°32'0 0.1
2017-Nov-23 09:30S 20°06' E 118°32'0 0.0
2017-Nov-23 08:42S 20°06' E 118°32'0 0.0
2017-Nov-23 08:30S 20°06' E 118°32'0 0.0
2017-Nov-23 04:37S 20°06' E 118°32'0 0.6
2017-Nov-23 04:25S 20°06' E 118°32'1 2.6
2017-Nov-23 04:00S 20°06' E 118°33'3 6.0
2017-Nov-23 03:30S 20°03' E 118°33'5 8.4
2017-Nov-23 02:57S 19°59' E 118°30'4 6.9
2017-Nov-23 02:24S 19°56' E 118°28'4 9.5
2017-Nov-23 02:00S 19°52' E 118°27'813.0
2017-Nov-23 01:24S 19°45' E 118°25'713.6
2017-Nov-23 00:54S 19°38' E 118°23'613.5
2017-Nov-23 00:28S 19°33' E 118°22'713.6
2017-Nov-22 23:59S 19°26' E 118°20'713.2
2017-Nov-22 23:26S 19°19' E 118°18'613.3
2017-Nov-22 22:59S 19°13' E 118°17'612.8
2017-Nov-22 22:30S 19°07' E 118°15'612.5
2017-Nov-22 22:00S 19°01' E 118°13'612.4
2017-Nov-22 21:30S 18°55' E 118°12'612.9
2017-Nov-22 21:00S 18°49' E 118°10'712.5
2017-Nov-22 20:27S 18°42' E 118°08'612.5
2017-Nov-22 19:59S 18°37' E 118°07'1112.7
2017-Nov-22 19:06S 18°26' E 118°04'  
2017-Nov-17 16:01N 01°15' E 104°02'111.8
2017-Nov-17 15:57N 01°15' E 104°01'3 0.6
2017-Nov-17 11:14N 01°17' E 103°60'0 0.2
2017-Nov-17 10:50N 01°17' E 103°60'0 0.1
2017-Nov-17 10:26N 01°17' E 103°60'0 0.0
2017-Nov-17 09:56N 01°17' E 103°60'0 0.0
2017-Nov-17 09:14N 01°17' E 103°60'0 0.0
2017-Nov-17 08:50N 01°17' E 103°60'0 0.0
2017-Nov-17 08:26N 01°17' E 103°60'0 0.0
2017-Nov-17 07:59N 01°17' E 103°60'0 0.0
2017-Nov-17 07:11N 01°17' E 103°60'0 0.0
2017-Nov-17 06:02N 01°17' E 103°60'0 0.0
2017-Nov-17 05:56N 01°17' E 103°60'0 0.0
2017-Nov-17 05:08N 01°17' E 103°60'0 0.1
2017-Nov-17 04:56N 01°17' E 103°60'0 0.0
2017-Nov-17 04:20N 01°17' E 103°60'0 0.0
2017-Nov-17 03:50N 01°17' E 103°60'0 0.0
2017-Nov-17 03:02N 01°17' E 103°60'0 0.1
2017-Nov-17 02:32N 01°17' E 103°60'0 0.1
2017-Nov-17 02:20N 01°17' E 103°60'0 0.0
2017-Nov-17 01:50N 01°17' E 103°60'0 0.0
2017-Nov-17 01:29N 01°17' E 103°60'0 0.0
2017-Nov-17 00:44N 01°17' E 103°60'0 0.4
2017-Nov-17 00:26N 01°17' E 103°60'0 0.9
2017-Nov-17 00:01N 01°17' E 103°59'2 3.8
2017-Nov-16 23:30N 01°16' E 103°58'3 6.1
2017-Nov-16 22:59N 01°16' E 104°01'22 8.8
2017-Nov-16 20:29N 01°21' E 104°23'  
Track history (hours):
 
Tides and Currents Weather Stations Pressure Air Temp Water Temp Dewpoint Dewpoint Depression Visibility Wind Speed Wind Dir Waves Ship Positions

Daydream Believer

Last reported at 2017-Nov-24 09:30 UTC. Time now 2017-Nov-24 13:17 UTC.
Position S 20°06' E 118°32'.

Length 178 m; draft 6.5 m.

Type: Ship. MMSI: 538004493.

Date/timePositionNaut miles runAvg speedWind from/ knotsBaromVisibWave heightAir tempDewpointWater temp
2017-Nov-24 09:30S 20°06' E 118°32'0 0.0
2017-Nov-24 07:06S 20°06' E 118°32'0 0.0
2017-Nov-24 05:42S 20°06' E 118°32'0 0.0
2017-Nov-24 01:48S 20°06' E 118°32'0 0.0
2017-Nov-24 01:30S 20°06' E 118°32'0 0.1
2017-Nov-24 01:00S 20°06' E 118°32'0 0.0
2017-Nov-24 00:30S 20°06' E 118°32'0 0.0
2017-Nov-23 23:54S 20°06' E 118°32'0 0.1
2017-Nov-23 22:00S 20°06' E 118°31'0 0.0
2017-Nov-23 20:42S 20°06' E 118°31'0 0.1
2017-Nov-23 19:30S 20°06' E 118°32'0 0.0
2017-Nov-23 14:18S 20°06' E 118°32'0 0.0
2017-Nov-23 12:30S 20°06' E 118°32'0 0.0
2017-Nov-23 10:42S 20°06' E 118°32'0 0.0
2017-Nov-23 10:30S 20°06' E 118°32'0 0.1
2017-Nov-23 09:30S 20°06' E 118°32'0 0.0
2017-Nov-23 08:42S 20°06' E 118°32'0 0.0
2017-Nov-23 08:30S 20°06' E 118°32'0 0.0
2017-Nov-23 04:37S 20°06' E 118°32'0 0.6
2017-Nov-23 04:25S 20°06' E 118°32'1 2.6
2017-Nov-23 04:00S 20°06' E 118°33'3 6.0
2017-Nov-23 03:30S 20°03' E 118°33'5 8.4
2017-Nov-23 02:57S 19°59' E 118°30'4 6.9
2017-Nov-23 02:24S 19°56' E 118°28'4 9.5
2017-Nov-23 02:00S 19°52' E 118°27'813.0
2017-Nov-23 01:24S 19°45' E 118°25'713.6
2017-Nov-23 00:54S 19°38' E 118°23'613.5
2017-Nov-23 00:28S 19°33' E 118°22'713.6
2017-Nov-22 23:59S 19°26' E 118°20'713.2
2017-Nov-22 23:26S 19°19' E 118°18'613.3
2017-Nov-22 22:59S 19°13' E 118°17'612.8
2017-Nov-22 22:30S 19°07' E 118°15'612.5
2017-Nov-22 22:00S 19°01' E 118°13'612.4
2017-Nov-22 21:30S 18°55' E 118°12'612.9
2017-Nov-22 21:00S 18°49' E 118°10'712.5
2017-Nov-22 20:27S 18°42' E 118°08'612.5
2017-Nov-22 19:59S 18°37' E 118°07'1112.7
2017-Nov-22 19:06S 18°26' E 118°04'  
2017-Nov-17 16:01N 01°15' E 104°02'111.8
2017-Nov-17 15:57N 01°15' E 104°01'3 0.6
2017-Nov-17 11:14N 01°17' E 103°60'0 0.2
2017-Nov-17 10:50N 01°17' E 103°60'0 0.1
2017-Nov-17 10:26N 01°17' E 103°60'0 0.0
2017-Nov-17 09:56N 01°17' E 103°60'0 0.0
2017-Nov-17 09:14N 01°17' E 103°60'0 0.0
2017-Nov-17 08:50N 01°17' E 103°60'0 0.0
2017-Nov-17 08:26N 01°17' E 103°60'0 0.0
2017-Nov-17 07:59N 01°17' E 103°60'0 0.0
2017-Nov-17 07:11N 01°17' E 103°60'0 0.0
2017-Nov-17 06:02N 01°17' E 103°60'0 0.0
2017-Nov-17 05:56N 01°17' E 103°60'0 0.0
2017-Nov-17 05:08N 01°17' E 103°60'0 0.1
2017-Nov-17 04:56N 01°17' E 103°60'0 0.0
2017-Nov-17 04:20N 01°17' E 103°60'0 0.0
2017-Nov-17 03:50N 01°17' E 103°60'0 0.0
2017-Nov-17 03:02N 01°17' E 103°60'0 0.1
2017-Nov-17 02:32N 01°17' E 103°60'0 0.1
2017-Nov-17 02:20N 01°17' E 103°60'0 0.0
2017-Nov-17 01:50N 01°17' E 103°60'0 0.0
2017-Nov-17 01:29N 01°17' E 103°60'0 0.0
2017-Nov-17 00:44N 01°17' E 103°60'0 0.4
2017-Nov-17 00:26N 01°17' E 103°60'0 0.9
2017-Nov-17 00:01N 01°17' E 103°59'2 3.8
2017-Nov-16 23:30N 01°16' E 103°58'3 6.1
2017-Nov-16 22:59N 01°16' E 104°01'22 8.8
2017-Nov-16 20:29N 01°21' E 104°23'  

Dump ship's entire track history